Roxane — 9H9917 — position and weather

sailwx.info

Track history (hours):
 
Tides and Currents Weather Stations Pressure Air Temp Water Temp Dewpoint Dewpoint Depression Visibility Wind Speed Wind Dir Waves Ship Positions

Roxane

Last reported at 2017-Sep-07 03:49 UTC. Time now 2017-Sep-19 13:51 UTC.
Position N 43°12' E 010°10'.
Warning: this ship's position is 12 days out of date.

Length 46 m.

Type: Sailing vessel. MMSI: 248548000.

Date/timePositionNaut miles runAvg speedWind from/ knotsBaromVisibWave heightAir tempDewpointWater temp
2017-Sep-07 03:49N 43°12' E 010°10'310.2
2017-Sep-07 03:29N 43°15' E 010°08'510.0
2017-Sep-07 03:00N 43°20' E 010°06'510.0
2017-Sep-07 02:30N 43°25' E 010°04'510.1
2017-Sep-07 02:01N 43°29' E 010°01'510.3
2017-Sep-07 01:30N 43°34' E 009°58'510.1
2017-Sep-07 01:00N 43°39' E 009°56'510.2
2017-Sep-07 00:30N 43°44' E 009°56'510.2
2017-Sep-07 00:00N 43°49' E 009°57'5 9.7
2017-Sep-06 23:30N 43°54' E 009°58'510.3
2017-Sep-06 23:00N 43°58' E 009°54'510.2
2017-Sep-06 22:30N 44°03' E 009°52'1 1.7
2017-Sep-06 21:58N 44°03' E 009°51'0 0.0
2017-Sep-06 21:28N 44°03' E 009°51'0 0.0
2017-Sep-06 20:58N 44°03' E 009°51'0 0.0
2017-Sep-06 20:28N 44°03' E 009°51'0 0.0
2017-Sep-06 19:58N 44°03' E 009°51'0 0.0
2017-Sep-06 19:28N 44°03' E 009°51'0 0.0
2017-Sep-06 18:58N 44°03' E 009°51'0 0.0
2017-Sep-06 18:28N 44°03' E 009°51'0 0.0
2017-Sep-06 17:58N 44°03' E 009°51'0 0.1
2017-Sep-06 17:25N 44°03' E 009°51'0 0.0
2017-Sep-06 16:58N 44°03' E 009°51'0 0.0
2017-Sep-06 16:28N 44°03' E 009°51'0 0.0
2017-Sep-06 15:58N 44°03' E 009°51'0 0.0
2017-Sep-06 15:25N 44°03' E 009°51'0 0.0
2017-Sep-06 14:58N 44°03' E 009°51'0 0.0
2017-Sep-06 14:28N 44°03' E 009°51'0 0.0
2017-Sep-06 13:58N 44°03' E 009°51'0 0.0
2017-Sep-06 13:28N 44°03' E 009°51'0 0.0
2017-Sep-06 12:58N 44°03' E 009°51'0 0.0
2017-Sep-06 12:28N 44°03' E 009°51'1 2.1
2017-Sep-06 12:00N 44°03' E 009°52'3 6.8
2017-Sep-06 11:30N 44°02' E 009°47'5 9.6
2017-Sep-06 11:00N 44°04' E 009°41'5 9.1
2017-Sep-06 10:30N 44°07' E 009°36'7 9.2
2017-Sep-06 09:44N 44°12' E 009°28'13 0.9
2017-Sep-05 19:20N 44°19' E 009°13'0 0.0
2017-Sep-05 17:26N 44°19' E 009°13'0 0.0
2017-Sep-05 16:50N 44°19' E 009°13'0 0.0
2017-Sep-05 16:26N 44°19' E 009°13'0 0.0
2017-Sep-05 09:02N 44°19' E 009°13'0 0.0
2017-Sep-05 04:25N 44°19' E 009°13'2 4.8
2017-Sep-05 04:00N 44°17' E 009°13'5 8.5
2017-Sep-05 03:28N 44°15' E 009°08'6 9.4
2017-Sep-05 02:47N 44°12' E 009°00'3 9.5
2017-Sep-05 02:28N 44°10' E 008°56'  
2017-Sep-01 10:52N 43°35' E 007°08'0 0.0
2017-Sep-01 10:28N 43°35' E 007°08'0 0.0
2017-Sep-01 09:55N 43°35' E 007°08'0 0.0
2017-Aug-31 11:20N 43°35' E 007°08'0 0.0
2017-Aug-31 10:59N 43°35' E 007°08'0 0.0
2017-Aug-31 10:26N 43°35' E 007°08'0 0.0
2017-Aug-31 09:59N 43°35' E 007°08'0 0.0
2017-Aug-31 03:56N 43°35' E 007°08'0 0.0
2017-Aug-30 22:05N 43°35' E 007°08'0 0.0
2017-Aug-30 21:53N 43°35' E 007°08'0 0.0
2017-Aug-30 21:26N 43°35' E 007°08'0 0.0
2017-Aug-30 20:50N 43°35' E 007°08'  
2017-Aug-28 12:23N 43°35' E 007°08'  
Track history (hours):
 
Tides and Currents Weather Stations Pressure Air Temp Water Temp Dewpoint Dewpoint Depression Visibility Wind Speed Wind Dir Waves Ship Positions

Roxane

Last reported at 2017-Sep-07 03:49 UTC. Time now 2017-Sep-19 13:51 UTC.
Position N 43°12' E 010°10'.
Warning: this ship's position is 12 days out of date.

Length 46 m.

Type: Sailing vessel. MMSI: 248548000.

Date/timePositionNaut miles runAvg speedWind from/ knotsBaromVisibWave heightAir tempDewpointWater temp
2017-Sep-07 03:49N 43°12' E 010°10'310.2
2017-Sep-07 03:29N 43°15' E 010°08'510.0
2017-Sep-07 03:00N 43°20' E 010°06'510.0
2017-Sep-07 02:30N 43°25' E 010°04'510.1
2017-Sep-07 02:01N 43°29' E 010°01'510.3
2017-Sep-07 01:30N 43°34' E 009°58'510.1
2017-Sep-07 01:00N 43°39' E 009°56'510.2
2017-Sep-07 00:30N 43°44' E 009°56'510.2
2017-Sep-07 00:00N 43°49' E 009°57'5 9.7
2017-Sep-06 23:30N 43°54' E 009°58'510.3
2017-Sep-06 23:00N 43°58' E 009°54'510.2
2017-Sep-06 22:30N 44°03' E 009°52'1 1.7
2017-Sep-06 21:58N 44°03' E 009°51'0 0.0
2017-Sep-06 21:28N 44°03' E 009°51'0 0.0
2017-Sep-06 20:58N 44°03' E 009°51'0 0.0
2017-Sep-06 20:28N 44°03' E 009°51'0 0.0
2017-Sep-06 19:58N 44°03' E 009°51'0 0.0
2017-Sep-06 19:28N 44°03' E 009°51'0 0.0
2017-Sep-06 18:58N 44°03' E 009°51'0 0.0
2017-Sep-06 18:28N 44°03' E 009°51'0 0.0
2017-Sep-06 17:58N 44°03' E 009°51'0 0.1
2017-Sep-06 17:25N 44°03' E 009°51'0 0.0
2017-Sep-06 16:58N 44°03' E 009°51'0 0.0
2017-Sep-06 16:28N 44°03' E 009°51'0 0.0
2017-Sep-06 15:58N 44°03' E 009°51'0 0.0
2017-Sep-06 15:25N 44°03' E 009°51'0 0.0
2017-Sep-06 14:58N 44°03' E 009°51'0 0.0
2017-Sep-06 14:28N 44°03' E 009°51'0 0.0
2017-Sep-06 13:58N 44°03' E 009°51'0 0.0
2017-Sep-06 13:28N 44°03' E 009°51'0 0.0
2017-Sep-06 12:58N 44°03' E 009°51'0 0.0
2017-Sep-06 12:28N 44°03' E 009°51'1 2.1
2017-Sep-06 12:00N 44°03' E 009°52'3 6.8
2017-Sep-06 11:30N 44°02' E 009°47'5 9.6
2017-Sep-06 11:00N 44°04' E 009°41'5 9.1
2017-Sep-06 10:30N 44°07' E 009°36'7 9.2
2017-Sep-06 09:44N 44°12' E 009°28'13 0.9
2017-Sep-05 19:20N 44°19' E 009°13'0 0.0
2017-Sep-05 17:26N 44°19' E 009°13'0 0.0
2017-Sep-05 16:50N 44°19' E 009°13'0 0.0
2017-Sep-05 16:26N 44°19' E 009°13'0 0.0
2017-Sep-05 09:02N 44°19' E 009°13'0 0.0
2017-Sep-05 04:25N 44°19' E 009°13'2 4.8
2017-Sep-05 04:00N 44°17' E 009°13'5 8.5
2017-Sep-05 03:28N 44°15' E 009°08'6 9.4
2017-Sep-05 02:47N 44°12' E 009°00'3 9.5
2017-Sep-05 02:28N 44°10' E 008°56'  
2017-Sep-01 10:52N 43°35' E 007°08'0 0.0
2017-Sep-01 10:28N 43°35' E 007°08'0 0.0
2017-Sep-01 09:55N 43°35' E 007°08'0 0.0
2017-Aug-31 11:20N 43°35' E 007°08'0 0.0
2017-Aug-31 10:59N 43°35' E 007°08'0 0.0
2017-Aug-31 10:26N 43°35' E 007°08'0 0.0
2017-Aug-31 09:59N 43°35' E 007°08'0 0.0
2017-Aug-31 03:56N 43°35' E 007°08'0 0.0
2017-Aug-30 22:05N 43°35' E 007°08'0 0.0
2017-Aug-30 21:53N 43°35' E 007°08'0 0.0
2017-Aug-30 21:26N 43°35' E 007°08'0 0.0
2017-Aug-30 20:50N 43°35' E 007°08'  
2017-Aug-28 12:23N 43°35' E 007°08'  

Dump ship's entire track history